Time;durP1;ratioP1;P1;durP2;ratioP2;P2;SDS_P1;SDS_P2;PMS_P1;PMS_P2;Temp;Humidity;BMP_temperature;BMP_pressure;BME280_temperature;BME280_humidity;BME280_pressure;Samples;Min_cycle;Max_cycle;Signal;HPM_P1;HPM_P2
2023/05/28 00:02:17;;;;;;;;;11.25;8.25;;;;;22.04;34.45;101251.16;4961185;28;47018;-72
2023/05/28 00:04:43;;;;;;;;;10.25;9.25;;;;;21.95;34.62;101240.94;4963007;28;45437;-73
2023/05/28 00:07:10;;;;;;;;;10.25;8.25;;;;;21.94;34.97;101234.72;4971018;28;46165;-72
2023/05/28 00:09:40;;;;;;;;;9.75;8.75;;;;;21.94;34.69;101242.75;4962450;28;45376;-73
2023/05/28 00:12:07;;;;;;;;;13.25;11.50;;;;;21.89;34.77;101240.31;4962095;28;45330;-73
2023/05/28 00:14:33;;;;;;;;;9.50;9.50;;;;;21.90;35.05;101247.41;4975582;28;45395;-73
2023/05/28 00:16:58;;;;;;;;;10.75;10.00;;;;;21.87;34.85;101244.91;4976628;28;48897;-73
2023/05/28 00:19:23;;;;;;;;;13.75;8.25;;;;;21.85;34.85;101240.59;4962196;28;45354;-72
2023/05/28 00:21:49;;;;;;;;;10.00;8.75;;;;;21.82;35.18;101240.72;4962530;28;45330;-74
2023/05/28 00:24:14;;;;;;;;;10.00;8.50;;;;;21.79;34.52;101236.41;4960872;28;45526;-72
2023/05/28 00:26:39;;;;;;;;;15.50;10.00;;;;;21.74;34.68;101236.66;4960411;28;45603;-73
2023/05/28 00:29:05;;;;;;;;;8.00;7.00;;;;;21.70;35.34;101229.75;4969535;28;45270;-72
2023/05/28 00:31:30;;;;;;;;;11.50;9.25;;;;;21.69;34.94;101229.84;4983376;28;45281;-73
2023/05/28 00:33:56;;;;;;;;;8.50;8.25;;;;;21.66;35.26;101230.88;4962299;28;45330;-72
2023/05/28 00:36:22;;;;;;;;;10.25;8.50;;;;;21.64;35.04;101232.75;4961724;28;46973;-72
2023/05/28 00:38:47;;;;;;;;;11.50;9.50;;;;;21.60;35.11;101225.84;4962253;28;45449;-72
2023/05/28 00:41:13;;;;;;;;;9.25;8.25;;;;;21.58;35.07;101233.06;4961980;28;45497;-73
2023/05/28 00:43:38;;;;;;;;;12.00;10.00;;;;;21.48;35.16;101213.94;4962204;28;45337;-73
2023/05/28 00:46:06;;;;;;;;;11.00;8.50;;;;;21.51;34.89;101235.19;4961995;28;45183;-73
2023/05/28 00:48:31;;;;;;;;;9.50;8.00;;;;;21.47;35.36;101235.41;4962175;28;45550;-73
2023/05/28 00:51:01;;;;;;;;;10.25;9.25;;;;;21.44;35.29;101231.09;4961953;28;45341;-73
2023/05/28 00:53:26;;;;;;;;;9.75;8.25;;;;;21.40;35.44;101226.84;4960824;28;45956;-74
2023/05/28 00:55:53;;;;;;;;;9.75;9.00;;;;;21.37;34.80;101225.22;4961660;28;46187;-73
2023/05/28 00:58:19;;;;;;;;;12.00;9.00;;;;;21.35;35.01;101223.56;4962152;28;45461;-73
2023/05/28 01:00:45;;;;;;;;;10.25;8.25;;;;;21.31;35.45;101230.88;4961824;28;45315;-73
2023/05/28 01:03:10;;;;;;;;;10.25;9.50;;;;;21.27;35.36;101234.66;4961688;28;45541;-74
2023/05/28 01:05:36;;;;;;;;;13.00;8.75;;;;;21.18;35.14;101219.06;4969675;28;46023;-73
2023/05/28 01:08:03;;;;;;;;;12.25;9.75;;;;;21.21;35.45;101234.97;4961858;28;45263;-73
2023/05/28 01:10:30;;;;;;;;;12.00;10.00;;;;;21.17;35.50;101242.28;4961663;28;45328;-74
2023/05/28 01:12:57;;;;;;;;;8.25;8.00;;;;;21.13;35.23;101247.84;4961645;28;45263;-73
2023/05/28 01:15:24;;;;;;;;;13.00;8.50;;;;;21.09;35.11;101240.00;4961143;28;45432;-74
2023/05/28 01:17:55;;;;;;;;;11.75;10.50;;;;;21.06;35.05;101244.63;4961550;28;45300;-73
2023/05/28 01:20:20;;;;;;;;;11.50;8.75;;;;;21.04;35.07;101249.16;4961288;28;45430;-72
2023/05/28 01:22:52;;;;;;;;;11.50;11.25;;;;;21.01;35.26;101238.66;4961453;28;45877;-73
2023/05/28 01:25:18;;;;;;;;;10.50;7.75;;;;;20.94;35.35;101233.59;4961304;28;45297;-73
2023/05/28 01:27:43;;;;;;;;;11.50;9.75;;;;;20.93;35.80;101245.22;4961477;28;45252;-73
2023/05/28 01:30:09;;;;;;;;;13.25;11.00;;;;;20.90;35.84;101240.03;4974525;28;45333;-73
2023/05/28 01:32:38;;;;;;;;;11.00;11.00;;;;;20.88;35.39;101239.25;4976314;28;45333;-73
2023/05/28 01:35:05;;;;;;;;;12.00;10.00;;;;;20.86;35.45;101238.44;4961173;28;47347;-73
2023/05/28 01:37:33;;;;;;;;;10.50;9.25;;;;;20.82;35.54;101236.00;4961233;28;45251;-73
2023/05/28 01:40:02;;;;;;;;;9.75;7.50;;;;;20.81;35.62;101247.66;4961141;28;45485;-73
2023/05/28 01:42:29;;;;;;;;;12.25;10.50;;;;;20.80;35.53;101251.25;4961183;28;45582;-73
2023/05/28 01:44:55;;;;;;;;;12.75;11.25;;;;;20.76;35.89;101248.72;4960930;28;46324;-73
2023/05/28 01:47:22;;;;;;;;;9.50;9.00;;;;;20.72;35.99;101240.97;4961210;28;45234;-73
2023/05/28 01:49:47;;;;;;;;;15.00;13.75;;;;;20.71;35.53;101247.22;4961198;28;45249;-73
2023/05/28 01:52:14;;;;;;;;;8.00;8.00;;;;;20.67;35.74;101251.81;4960943;28;45414;-72
2023/05/28 01:54:40;;;;;;;;;11.75;10.00;;;;;20.64;35.73;101246.63;4960701;28;46060;-73
2023/05/28 01:57:06;;;;;;;;;9.25;4.75;;;;;20.64;35.78;101243.97;4961016;28;45283;-73
2023/05/28 01:59:31;;;;;;;;;10.25;9.00;;;;;20.62;35.80;101245.84;4976066;28;45405;-72
2023/05/28 02:01:58;;;;;;;;;11.00;11.00;;;;;20.59;35.69;101235.28;4961178;28;45603;-73
2023/05/28 02:04:23;;;;;;;;;13.25;10.25;;;;;20.57;36.31;101240.72;4960819;28;45383;-73
2023/05/28 02:06:49;;;;;;;;;14.25;10.75;;;;;20.55;36.43;101241.72;4967769;28;45235;-73
2023/05/28 02:09:15;;;;;;;;;18.00;14.25;;;;;20.52;36.26;101241.88;4960987;28;45451;-72
2023/05/28 02:11:40;;;;;;;;;11.75;11.00;;;;;20.40;35.89;101225.53;4959703;28;45422;-72
2023/05/28 02:14:05;;;;;;;;;12.00;11.00;;;;;20.46;35.86;101241.25;4959432;28;46068;-73
2023/05/28 02:16:31;;;;;;;;;15.75;11.25;;;;;20.44;36.14;101243.13;4960717;28;45234;-73
2023/05/28 02:18:58;;;;;;;;;13.75;12.50;;;;;20.44;36.21;101243.13;4960872;28;45915;-72
2023/05/28 02:21:24;;;;;;;;;10.50;10.50;;;;;20.39;36.26;101246.94;4960676;28;45907;-72
2023/05/28 02:23:50;;;;;;;;;12.25;11.25;;;;;20.36;36.53;101244.41;4960404;28;46118;-72
2023/05/28 02:26:17;;;;;;;;;17.25;14.50;;;;;20.35;36.56;101245.34;4960614;28;45326;-73
2023/05/28 02:28:43;;;;;;;;;12.50;10.75;;;;;20.34;36.51;101255.16;4964862;28;45545;-72
2023/05/28 02:31:11;;;;;;;;;14.25;13.00;;;;;20.32;36.82;101245.50;4978055;28;45460;-73
2023/05/28 02:33:38;;;;;;;;;14.50;10.75;;;;;20.28;36.45;101250.97;4963986;28;45176;-73
2023/05/28 02:36:03;;;;;;;;;13.50;12.75;;;;;20.25;36.75;101251.13;4960364;28;45209;-73
2023/05/28 02:38:29;;;;;;;;;16.50;12.00;;;;;20.23;37.00;101250.31;4960551;28;45512;-72
2023/05/28 02:40:55;;;;;;;;;12.75;12.25;;;;;20.21;36.92;101254.00;4960603;28;45441;-73
2023/05/28 02:43:20;;;;;;;;;13.25;11.50;;;;;20.20;36.90;101249.59;4960405;28;45725;-73
2023/05/28 02:45:45;;;;;;;;;14.50;14.25;;;;;20.18;36.94;101254.16;4960651;28;45319;-73
2023/05/28 02:48:11;;;;;;;;;16.00;14.25;;;;;20.16;36.63;101256.03;4960761;28;45247;-73
2023/05/28 02:50:36;;;;;;;;;15.25;10.75;;;;;20.10;37.19;101252.72;4962064;28;45290;-73
2023/05/28 02:53:02;;;;;;;;;13.50;13.25;;;;;20.11;36.63;101257.13;4963836;28;45334;-73
2023/05/28 02:55:28;;;;;;;;;16.50;14.00;;;;;20.06;36.91;101253.78;4963731;28;45316;-73
2023/05/28 02:57:53;;;;;;;;;14.50;13.50;;;;;20.06;37.22;101247.56;4963514;28;45293;-73
2023/05/28 03:00:19;;;;;;;;;14.50;12.75;;;;;20.04;37.43;101247.66;4963721;28;46801;-73
2023/05/28 03:02:45;;;;;;;;;16.00;14.25;;;;;20.01;37.65;101250.44;4963565;28;45988;-73
2023/05/28 03:05:10;;;;;;;;;14.25;11.50;;;;;20.00;37.02;101248.75;4967108;28;45334;-74
2023/05/28 03:07:35;;;;;;;;;13.75;13.25;;;;;19.98;37.36;101245.25;4965963;28;45365;-73
2023/05/28 03:10:00;;;;;;;;;15.00;13.25;;;;;19.97;37.05;101251.53;4962202;28;45602;-73
2023/05/28 03:12:26;;;;;;;;;13.25;13.00;;;;;19.96;37.65;101244.47;4963073;28;53723;-72
2023/05/28 03:14:51;;;;;;;;;17.50;14.75;;;;;19.94;37.25;101246.34;4963123;28;45291;-72
2023/05/28 03:17:17;;;;;;;;;14.50;12.75;;;;;19.92;37.35;101243.75;4963498;28;45219;-73
2023/05/28 03:19:42;;;;;;;;;16.25;11.75;;;;;19.90;37.14;101256.28;4963539;28;45312;-73
2023/05/28 03:22:08;;;;;;;;;14.25;12.00;;;;;19.88;37.69;101251.97;4963096;28;46195;-73
2023/05/28 03:24:34;;;;;;;;;16.75;15.00;;;;;19.87;37.73;101252.88;4963527;28;45160;-73
2023/05/28 03:27:00;;;;;;;;;15.50;15.25;;;;;19.83;37.39;101248.63;4963107;28;45249;-72
2023/05/28 03:29:26;;;;;;;;;20.25;15.25;;;;;19.80;37.96;101245.13;4973309;28;45445;-73
2023/05/28 03:31:51;;;;;;;;;14.25;13.25;;;;;19.77;37.52;101247.94;4980405;28;45243;-72
2023/05/28 03:34:17;;;;;;;;;16.25;15.50;;;;;19.72;38.00;101247.28;4961962;28;45426;-72
2023/05/28 03:36:42;;;;;;;;;18.25;13.75;;;;;19.69;37.70;101236.75;4962832;28;45291;-73
2023/05/28 03:39:08;;;;;;;;;17.00;15.50;;;;;19.64;37.74;101238.75;4963069;28;45395;-73
2023/05/28 03:41:34;;;;;;;;;10.75;10.00;;;;;19.63;38.07;101239.69;4962735;28;46906;-72
2023/05/28 03:44:00;;;;;;;;;18.75;15.50;;;;;19.61;37.80;101244.22;4963096;28;45298;-72
2023/05/28 03:46:25;;;;;;;;;15.25;14.25;;;;;19.59;38.03;101254.09;4977922;28;45379;-72
2023/05/28 03:48:51;;;;;;;;;17.25;15.75;;;;;19.56;37.84;101243.53;4963084;28;45212;-73
2023/05/28 03:51:16;;;;;;;;;16.00;14.00;;;;;19.54;38.05;101248.94;4962508;28;45950;-72
2023/05/28 03:53:41;;;;;;;;;19.50;16.25;;;;;19.53;37.68;101249.03;4962924;28;45172;-72
2023/05/28 03:56:07;;;;;;;;;11.50;9.75;;;;;19.50;38.08;101247.34;4945512;28;45198;-72
2023/05/28 03:58:32;;;;;;;;;14.25;12.75;;;;;19.47;37.87;101259.03;4963051;28;45566;-72
2023/05/28 04:00:57;;;;;;;;;16.00;13.50;;;;;19.45;38.20;101250.22;4961838;28;45919;-73
2023/05/28 04:03:23;;;;;;;;;15.50;13.25;;;;;19.41;38.23;101251.28;4962348;28;45260;-72
2023/05/28 04:05:48;;;;;;;;;19.25;18.25;;;;;19.43;38.63;101246.78;4970338;28;46467;-73
2023/05/28 04:08:13;;;;;;;;;24.00;18.50;;;;;19.42;38.35;101242.38;4961450;28;45665;-72
2023/05/28 04:10:39;;;;;;;;;17.25;14.50;;;;;19.40;38.28;101254.88;4962445;28;45326;-73
2023/05/28 04:13:04;;;;;;;;;20.50;17.00;;;;;19.37;38.23;101252.38;4961203;28;45469;-73
2023/05/28 04:15:30;;;;;;;;;20.75;18.00;;;;;19.37;38.49;101256.81;4962469;28;45253;-73
2023/05/28 04:17:55;;;;;;;;;18.25;16.00;;;;;19.32;38.56;101252.56;4962589;28;45427;-73
2023/05/28 04:20:20;;;;;;;;;20.25;17.50;;;;;19.31;38.76;101250.81;4962119;28;45734;-72
2023/05/28 04:22:46;;;;;;;;;18.50;17.25;;;;;19.28;38.45;101247.41;4962327;28;45313;-72
2023/05/28 04:25:12;;;;;;;;;19.75;18.25;;;;;19.25;38.52;101258.22;4977265;28;45359;-72
2023/05/28 04:27:37;;;;;;;;;17.75;16.75;;;;;19.25;38.87;101264.41;4962421;28;45449;-72
2023/05/28 04:30:03;;;;;;;;;21.25;19.50;;;;;19.21;38.57;101253.97;4975073;28;45354;-72
2023/05/28 04:32:31;;;;;;;;;22.50;18.50;;;;;19.21;38.74;101259.28;4976982;28;45344;-72
2023/05/28 04:34:56;;;;;;;;;23.25;16.50;;;;;19.16;38.95;101256.81;4962102;28;45373;-72
2023/05/28 04:37:21;;;;;;;;;16.75;15.00;;;;;19.16;38.99;101264.78;4962503;28;45243;-72
2023/05/28 04:39:48;;;;;;;;;20.00;17.00;;;;;19.14;38.85;101266.66;4961875;28;46256;-72
2023/05/28 04:42:16;;;;;;;;;18.25;17.00;;;;;19.11;39.03;101262.31;4962224;28;45192;-72
2023/05/28 04:44:43;;;;;;;;;17.00;14.75;;;;;19.10;38.99;101271.22;4962006;28;45477;-72
2023/05/28 04:47:09;;;;;;;;;15.75;15.75;;;;;19.09;38.85;101269.50;4962115;28;45294;-72
2023/05/28 04:49:34;;;;;;;;;41.50;33.75;;;;;19.08;39.10;101270.44;4961690;28;46033;-71
2023/05/28 04:51:59;;;;;;;;;22.50;16.75;;;;;19.03;39.12;101275.09;4960784;28;45255;-72
2023/05/28 04:54:26;;;;;;;;;20.00;18.25;;;;;19.03;39.22;101275.09;4962062;28;45501;-72
2023/05/28 04:56:51;;;;;;;;;18.75;15.75;;;;;18.95;39.02;101261.22;4961479;28;45176;-72
2023/05/28 04:59:17;;;;;;;;;21.00;15.50;;;;;19.00;39.46;101280.53;4961706;28;45190;-72
2023/05/28 05:01:42;;;;;;;;;20.25;18.00;;;;;18.98;39.29;101280.59;4961903;28;45327;-72
2023/05/28 05:04:08;;;;;;;;;18.75;17.25;;;;;18.97;39.13;101278.88;4961970;28;45333;-72
2023/05/28 05:06:33;;;;;;;;;19.75;16.25;;;;;18.97;39.42;101283.34;4968624;28;45369;-72
2023/05/28 05:08:59;;;;;;;;;18.00;15.50;;;;;18.95;39.57;101277.19;4961717;28;46769;-72
2023/05/28 05:11:26;;;;;;;;;19.50;17.25;;;;;18.96;39.52;101285.13;4961759;28;45279;-72
2023/05/28 05:13:51;;;;;;;;;23.50;18.25;;;;;18.91;39.05;101276.44;4961394;28;45511;-72
2023/05/28 05:16:17;;;;;;;;;26.00;22.50;;;;;18.93;39.36;101273.72;4961289;28;45352;-72
2023/05/28 05:18:43;;;;;;;;;22.50;16.75;;;;;18.92;39.85;101285.31;4960199;28;45356;-72
2023/05/28 05:21:10;;;;;;;;;12.75;12.50;;;;;18.91;39.52;101281.78;4961517;28;45359;-72
2023/05/28 05:23:35;;;;;;;;;22.25;17.50;;;;;18.90;39.78;101280.03;4961484;28;45414;-72
2023/05/28 05:26:00;;;;;;;;;21.75;18.75;;;;;18.91;39.76;101294.22;4961086;28;45373;-72
2023/05/28 05:28:26;;;;;;;;;19.00;15.75;;;;;18.90;39.76;101282.69;4963262;28;45313;-72
2023/05/28 05:30:51;;;;;;;;;23.50;17.75;;;;;18.90;39.78;101288.03;4978072;28;45357;-72
2023/05/28 05:33:16;;;;;;;;;18.75;16.50;;;;;18.92;39.82;101288.00;4970456;28;45222;-71
2023/05/28 05:35:42;;;;;;;;;23.25;17.75;;;;;18.92;39.67;101282.66;4961166;28;45446;-71
2023/05/28 05:38:07;;;;;;;;;18.50;18.25;;;;;18.92;40.09;101288.00;4961171;28;45418;-72
2023/05/28 05:40:32;;;;;;;;;27.00;20.75;;;;;18.91;39.99;101289.75;4961134;28;45331;-69
2023/05/28 05:42:58;;;;;;;;;22.50;19.25;;;;;18.91;40.15;101287.09;4961226;28;45185;-71
2023/05/28 05:45:23;;;;;;;;;19.50;16.00;;;;;18.92;40.35;101288.00;4965520;28;45199;-69
2023/05/28 05:47:49;;;;;;;;;18.00;17.75;;;;;18.91;39.92;101284.44;4966888;28;46639;-69
2023/05/28 05:50:14;;;;;;;;;19.00;17.75;;;;;18.94;40.28;101300.31;4998925;28;45463;-69
2023/05/28 05:52:40;;;;;;;;;19.25;17.50;;;;;18.96;40.29;101300.25;4969833;28;46564;-70
2023/05/28 05:55:07;;;;;;;;;18.25;18.00;;;;;18.96;40.40;101295.75;4980563;28;45459;-70
2023/05/28 05:57:33;;;;;;;;;22.25;19.00;;;;;18.98;39.88;101290.38;4977268;28;45250;-69
2023/05/28 05:59:59;;;;;;;;;25.00;22.75;;;;;19.00;40.08;101296.50;4972219;28;45444;-69
2023/05/28 06:02:25;;;;;;;;;30.00;25.33;;;;;19.02;40.50;101289.34;4969861;28;45519;-70
2023/05/28 06:04:51;;;;;;;;;22.25;16.25;;;;;19.04;40.25;101286.59;4969887;28;45421;-69
2023/05/28 06:07:17;;;;;;;;;26.00;19.75;;;;;19.04;40.18;101287.47;4969332;28;46261;-69
2023/05/28 06:09:42;;;;;;;;;17.75;15.50;;;;;19.05;40.10;101288.34;4969182;28;45464;-69
2023/05/28 06:12:07;;;;;;;;;18.75;16.50;;;;;19.02;40.18;101281.34;4968161;28;45313;-69
2023/05/28 06:14:33;;;;;;;;;20.00;18.25;;;;;19.08;40.45;101286.44;4970810;28;45226;-69
2023/05/28 06:16:58;;;;;;;;;19.50;15.75;;;;;19.11;40.47;101278.28;4979868;28;46137;-71
2023/05/28 06:19:24;;;;;;;;;20.50;18.75;;;;;19.13;40.52;101279.09;4980444;28;45541;-71
2023/05/28 06:21:49;;;;;;;;;18.25;18.25;;;;;19.15;40.57;101287.88;4979873;28;47523;-70
2023/05/28 06:24:14;;;;;;;;;21.50;18.75;;;;;19.17;40.47;101286.03;4980364;28;45293;-70
2023/05/28 06:26:40;;;;;;;;;22.50;17.75;;;;;19.20;40.49;101286.84;4981938;28;45684;-70
2023/05/28 06:29:07;;;;;;;;;18.75;16.00;;;;;19.21;40.53;101277.94;4983416;28;45318;-69
2023/05/28 06:31:33;;;;;;;;;26.00;19.25;;;;;19.24;40.41;101280.44;4983194;28;45518;-70
2023/05/28 06:33:58;;;;;;;;;21.00;16.75;;;;;19.25;40.44;101282.19;4978355;28;45471;-70
2023/05/28 06:36:24;;;;;;;;;22.00;18.50;;;;;19.27;40.41;101278.53;4963738;28;45715;-69
2023/05/28 06:38:49;;;;;;;;;20.25;17.25;;;;;19.27;40.84;101275.88;4963978;28;45224;-69
2023/05/28 06:41:15;;;;;;;;;20.75;18.75;;;;;19.34;40.43;101287.13;4963866;28;45236;-69
2023/05/28 06:43:40;;;;;;;;;20.75;18.00;;;;;19.35;40.62;101280.88;4964086;28;45419;-69
2023/05/28 06:46:06;;;;;;;;;19.75;15.75;;;;;19.39;40.82;101279.78;4963740;28;46517;-69
2023/05/28 06:48:31;;;;;;;;;21.75;18.75;;;;;19.41;40.50;101285.06;4963858;28;45328;-70
2023/05/28 06:50:57;;;;;;;;;14.00;11.25;;;;;19.43;40.56;101281.41;4962393;28;45224;-70
2023/05/28 06:53:22;;;;;;;;;22.00;17.75;;;;;19.45;40.82;101279.53;4962669;28;45576;-70
2023/05/28 06:55:48;;;;;;;;;24.50;19.25;;;;;19.48;40.75;101281.19;4963496;28;45995;-70
2023/05/28 06:58:13;;;;;;;;;20.50;19.25;;;;;19.54;40.69;101291.59;4963933;28;45413;-69
2023/05/28 07:00:38;;;;;;;;;21.00;19.00;;;;;19.58;40.55;101289.66;4963855;28;45215;-69
2023/05/28 07:03:04;;;;;;;;;20.50;17.75;;;;;19.55;40.69;101285.34;4963909;28;45466;-70
2023/05/28 07:05:29;;;;;;;;;20.00;16.25;;;;;19.64;40.43;101290.25;4970832;28;46092;-70
2023/05/28 07:07:55;;;;;;;;;19.00;15.75;;;;;19.68;40.69;101295.47;4962530;28;45292;-70
2023/05/28 07:10:20;;;;;;;;;20.00;20.00;;;;;19.72;40.82;101297.06;4963554;28;45397;-70
2023/05/28 07:12:46;;;;;;;;;20.00;16.75;;;;;19.74;41.04;101293.38;4962439;28;45665;-70
2023/05/28 07:15:11;;;;;;;;;17.75;16.75;;;;;19.77;41.11;101293.28;4963168;28;48881;-70
2023/05/28 07:17:37;;;;;;;;;19.75;18.00;;;;;19.80;40.97;101298.47;4963108;28;45329;-71
2023/05/28 07:20:04;;;;;;;;;17.75;15.00;;;;;19.84;40.86;101293.03;4963406;28;45523;-70
2023/05/28 07:22:29;;;;;;;;;19.50;14.25;;;;;19.80;41.08;101281.59;4963413;28;45222;-71
2023/05/28 07:24:55;;;;;;;;;22.50;18.25;;;;;19.90;40.68;101293.63;4962936;28;45203;-70
2023/05/28 07:27:20;;;;;;;;;20.75;18.75;;;;;19.92;40.78;101285.53;4963199;28;45456;-70
2023/05/28 07:29:46;;;;;;;;;14.50;14.00;;;;;19.97;40.98;101287.09;4975890;28;45463;-70
2023/05/28 07:32:11;;;;;;;;;22.00;16.75;;;;;20.00;40.83;101285.19;4978350;28;45501;-70
2023/05/28 07:34:38;;;;;;;;;15.25;15.00;;;;;20.04;40.63;101293.00;4963040;28;45409;-69
2023/05/28 07:37:04;;;;;;;;;23.00;21.00;;;;;20.06;40.58;101283.13;4962179;28;45460;-71
2023/05/28 07:39:29;;;;;;;;;25.75;17.50;;;;;20.13;40.96;101291.72;4962659;28;45462;-69
2023/05/28 07:41:55;;;;;;;;;17.50;17.00;;;;;20.17;40.82;101292.44;4962530;28;52417;-69
2023/05/28 07:44:21;;;;;;;;;18.50;14.25;;;;;20.21;40.59;101294.03;4962525;28;48887;-70
2023/05/28 07:46:46;;;;;;;;;18.25;17.25;;;;;20.24;40.84;101292.09;4962851;28;45294;-69
2023/05/28 07:49:12;;;;;;;;;16.75;15.00;;;;;20.29;40.98;101289.22;4962915;28;45516;-63
2023/05/28 07:51:37;;;;;;;;;38.50;30.50;;;;;20.34;41.12;101281.84;4962793;28;45521;-64
2023/05/28 07:54:03;;;;;;;;;23.50;19.25;;;;;20.38;41.12;101285.25;4962371;28;45274;-66
2023/05/28 07:56:28;;;;;;;;;14.75;14.75;;;;;20.42;41.17;101279.69;4962660;28;45256;-66
2023/05/28 07:58:53;;;;;;;;;16.50;13.50;;;;;20.42;40.62;101263.66;4963145;28;45294;-63
2023/05/28 08:01:20;;;;;;;;;16.50;13.25;;;;;20.53;40.59;101273.84;4961666;28;45462;-63
2023/05/28 08:03:50;;;;;;;;;16.25;15.00;;;;;20.58;40.59;101273.63;4962468;28;47094;-61
2023/05/28 08:06:15;;;;;;;;;17.75;12.75;;;;;20.64;41.07;101276.00;4969707;28;45341;-61
2023/05/28 08:08:41;;;;;;;;;12.50;12.50;;;;;20.70;41.11;101273.00;4962670;28;45534;-62
2023/05/28 08:11:06;;;;;;;;;18.25;14.00;;;;;20.76;41.11;101277.25;4962607;28;45271;-62
2023/05/28 08:13:31;;;;;;;;;15.75;11.75;;;;;20.82;40.58;101276.94;4962487;28;45977;-59
2023/05/28 08:15:59;;;;;;;;;17.00;16.75;;;;;20.86;40.78;101272.31;4960967;28;45272;-59
2023/05/28 08:18:24;;;;;;;;;13.75;11.50;;;;;20.93;41.12;101273.75;4962373;28;45306;-59
2023/05/28 08:20:50;;;;;;;;;20.00;15.25;;;;;21.00;40.61;101271.63;4962096;28;45418;-59
2023/05/28 08:23:15;;;;;;;;;15.50;13.00;;;;;21.04;40.89;101274.09;4961028;28;46308;-59
2023/05/28 08:25:41;;;;;;;;;12.25;12.00;;;;;21.11;41.17;101267.47;4962213;28;45279;-60
2023/05/28 08:28:09;;;;;;;;;10.50;10.50;;;;;21.18;40.96;101272.50;4962484;28;45200;-59
2023/05/28 08:30:35;;;;;;;;;20.50;13.50;;;;;21.21;41.00;101269.69;4976518;28;45342;-59
2023/05/28 08:33:00;;;;;;;;;11.25;11.25;;;;;21.30;40.42;101271.03;4973900;28;45518;-59
2023/05/28 08:35:25;;;;;;;;;15.50;13.75;;;;;21.34;40.54;101262.78;4961894;28;45310;-59
2023/05/28 08:37:51;;;;;;;;;14.25;12.50;;;;;21.40;40.76;101262.47;4960700;28;45402;-61
2023/05/28 08:40:17;;;;;;;;;14.25;12.25;;;;;21.47;40.67;101260.34;4961528;28;45216;-61
2023/05/28 08:42:43;;;;;;;;;16.25;13.75;;;;;21.53;40.71;101259.16;4961564;28;45310;-62
2023/05/28 08:45:09;;;;;;;;;13.00;13.00;;;;;21.57;41.01;101256.28;4961983;28;45250;-61
2023/05/28 08:47:37;;;;;;;;;17.25;13.00;;;;;21.64;40.26;101251.47;4961282;28;45183;-67
2023/05/28 08:50:06;;;;;;;;;11.00;10.75;;;;;21.71;40.25;101252.00;4961940;28;45208;-61
2023/05/28 08:52:33;;;;;;;;;20.75;16.25;;;;;21.77;40.27;101249.00;4961569;28;46150;-60
2023/05/28 08:55:00;;;;;;;;;17.50;15.00;;;;;21.84;40.79;101252.22;4961682;28;45391;-64
2023/05/28 08:57:28;;;;;;;;;10.75;10.00;;;;;21.84;40.14;101238.84;4961906;28;45250;-67
2023/05/28 08:59:54;;;;;;;;;13.25;13.00;;;;;21.96;40.64;101240.88;4962127;28;45306;-66
2023/05/28 09:02:23;;;;;;;;;11.50;10.75;;;;;22.03;40.45;101234.22;4961591;28;47270;-67
2023/05/28 09:04:49;;;;;;;;;17.75;14.25;;;;;22.11;40.18;101233.78;4963968;28;45546;-66
2023/05/28 09:07:15;;;;;;;;;15.25;13.00;;;;;22.19;40.47;101233.38;4966527;28;45437;-66
2023/05/28 09:09:40;;;;;;;;;14.75;12.00;;;;;22.26;40.41;101226.72;4961813;28;45498;-66
2023/05/28 09:12:11;;;;;;;;;13.50;12.75;;;;;22.33;40.01;101232.63;4961402;28;45426;-66
2023/05/28 09:14:41;;;;;;;;;12.50;10.75;;;;;22.38;40.14;101234.09;4961736;28;45431;-66
2023/05/28 09:17:08;;;;;;;;;20.25;16.50;;;;;22.45;39.82;101240.00;4961369;28;45232;-66
2023/05/28 09:19:34;;;;;;;;;14.25;12.50;;;;;22.51;39.89;101236.94;4976509;28;45252;-66
2023/05/28 09:22:01;;;;;;;;;12.25;11.00;;;;;22.58;40.24;101233.91;4961197;28;45676;-66
2023/05/28 09:24:27;;;;;;;;;10.75;10.00;;;;;22.64;39.93;101231.78;4960878;28;45380;-66
2023/05/28 09:26:57;;;;;;;;;15.25;13.00;;;;;22.70;39.91;101236.78;4965331;28;45572;-66
2023/05/28 09:29:23;;;;;;;;;13.00;11.00;;;;;22.76;39.99;101234.69;4970651;28;45334;-62
2023/05/28 09:32:00;;;;;;;;;14.50;11.25;;;;;22.83;39.84;101225.31;4975094;28;47195;-66
2023/05/28 09:34:30;;;;;;;;;12.00;10.00;;;;;22.92;39.86;101229.28;4979058;28;45342;-69
2023/05/28 09:37:03;;;;;;;;;22.75;12.75;;;;;22.99;39.52;101228.88;4980612;28;45477;-67
2023/05/28 09:39:29;;;;;;;;;11.00;9.75;;;;;23.05;39.65;101215.06;4979654;28;45762;-66
2023/05/28 09:42:03;;;;;;;;;10.25;10.25;;;;;23.15;39.40;101222.59;4974839;28;46310;-66
2023/05/28 09:44:30;;;;;;;;;14.00;10.25;;;;;23.21;39.81;101222.25;4977400;28;45416;-66
2023/05/28 09:46:56;;;;;;;;;11.25;10.25;;;;;23.27;39.41;101208.47;4980024;28;45384;-67
2023/05/28 09:49:21;;;;;;;;;12.50;10.00;;;;;23.35;39.78;101214.22;4980148;28;45428;-67
2023/05/28 09:51:52;;;;;;;;;14.75;10.75;;;;;23.45;39.13;101216.38;4980102;28;47328;-67
2023/05/28 09:54:19;;;;;;;;;13.00;11.25;;;;;23.52;39.38;101210.53;4979866;28;45510;-69
2023/05/28 09:56:47;;;;;;;;;10.75;9.00;;;;;23.63;39.13;101207.16;4976450;28;45382;-68
2023/05/28 09:59:14;;;;;;;;;12.00;11.25;;;;;23.73;39.24;101210.13;4976457;28;45561;-67
2023/05/28 10:01:52;;;;;;;;;13.25;10.50;;;;;23.84;39.02;101209.47;4980250;28;45484;-67
2023/05/28 10:04:23;;;;;;;;;12.50;10.00;;;;;23.95;39.17;101215.06;4968017;28;45459;-59
2023/05/28 10:06:51;;;;;;;;;13.50;10.25;;;;;24.08;38.75;101211.59;4980074;28;45262;-67
2023/05/28 10:09:18;;;;;;;;;13.50;13.50;;;;;24.20;39.43;101205.44;4979872;28;45542;-67
2023/05/28 10:11:55;;;;;;;;;11.50;10.75;;;;;24.36;38.88;101209.81;4980132;28;46327;-66
2023/05/28 10:14:22;;;;;;;;;9.75;7.75;;;;;24.54;39.07;101202.38;4979911;28;45247;-66
2023/05/28 10:16:47;;;;;;;;;10.50;10.50;;;;;24.73;39.20;101204.72;4979877;28;45420;-67
2023/05/28 10:19:13;;;;;;;;;11.50;8.50;;;;;24.93;39.03;101204.25;4979789;28;46331;-66
2023/05/28 10:21:39;;;;;;;;;8.75;8.75;;;;;25.19;38.88;101212.34;4978651;28;46060;-65
2023/05/28 10:24:05;;;;;;;;;10.25;8.75;;;;;25.44;38.67;101208.84;4979857;28;45384;-65
2023/05/28 10:26:31;;;;;;;;;13.50;10.50;;;;;25.71;38.96;101205.22;4978177;28;45312;-65
2023/05/28 10:28:57;;;;;;;;;10.25;9.50;;;;;26.02;38.55;101196.75;4979810;28;45588;-65
2023/05/28 10:31:23;;;;;;;;;9.50;8.75;;;;;26.39;39.47;101205.72;4979443;28;46223;-68
2023/05/28 10:33:48;;;;;;;;;13.25;9.25;;;;;26.79;38.94;101199.19;4970855;28;45361;-68
2023/05/28 10:36:15;;;;;;;;;12.00;12.00;;;;;27.24;39.02;101206.59;4977230;28;45725;-66
2023/05/28 10:39:05;;;;;;;;;10.75;9.75;;;;;27.75;38.99;101194.53;4980052;28;45308;-70
2023/05/28 10:41:33;;;;;;;;;11.00;8.25;;;;;28.34;38.97;101200.59;4973378;28;46412;-65
2023/05/28 10:44:06;;;;;;;;;14.75;10.00;;;;;28.92;39.10;101194.03;4979552;28;45349;-58
2023/05/28 10:46:41;;;;;;;;;8.75;8.00;;;;;29.50;39.01;101197.16;4980116;28;45339;-60
2023/05/28 10:49:18;;;;;;;;;12.50;10.00;;;;;30.10;39.10;101200.97;4994568;28;45377;-52
2023/05/28 10:51:43;;;;;;;;;11.50;10.00;;;;;30.70;39.36;101203.66;4979492;28;46991;-62
2023/05/28 10:54:21;;;;;;;;;11.25;9.25;;;;;31.31;38.41;101200.75;4979089;28;45452;-53
2023/05/28 10:57:08;;;;;;;;;11.25;11.00;;;;;31.96;38.91;101200.81;4979332;28;45282;-57
2023/05/28 10:59:38;;;;;;;;;8.75;8.00;;;;;32.52;38.36;101198.91;4994672;28;45342;-47
2023/05/28 11:02:06;;;;;;;;;10.25;8.50;;;;;33.05;37.79;101199.91;4979834;28;46051;-56
2023/05/28 11:04:33;;;;;;;;;13.50;10.00;;;;;33.53;38.14;101199.56;4979483;28;45235;-52
2023/05/28 11:06:59;;;;;;;;;9.50;8.75;;;;;34.00;37.28;101199.13;4974931;28;45420;-56
2023/05/28 11:09:25;;;;;;;;;8.00;8.00;;;;;34.47;37.21;101208.66;4971031;28;45332;-56